Time;durP1;ratioP1;P1;durP2;ratioP2;P2;SDS_P1;SDS_P2;PMS_P1;PMS_P2;Temp;Humidity;BMP_temperature;BMP_pressure;BME280_temperature;BME280_humidity;BME280_pressure;Samples;Min_cycle;Max_cycle;Signal;HPM_P1;HPM_P2
2022/08/08 00:00:52;;;;;;;64.05;36.55;;;;;;;30.49;81.12;97602.38;4925973;28;20061;-68
2022/08/08 00:04:18;;;;;;;61.90;36.05;;;;;;;30.36;80.96;97604.59;4954006;28;20058;-68
2022/08/08 00:07:25;;;;;;;61.65;35.55;;;;;;;30.37;81.44;97599.84;4943887;28;20545;-68
2022/08/08 00:10:28;;;;;;;66.13;36.55;;;;;;;30.34;81.37;97606.13;4945693;29;20754;-68
2022/08/08 00:13:50;;;;;;;69.63;38.38;;;;;;;30.27;81.31;97612.31;4936280;28;20106;-68
2022/08/08 00:17:17;;;;;;;69.13;38.78;;;;;;;30.40;80.93;97610.97;4959997;28;20051;-68
2022/08/08 00:20:38;;;;;;;72.28;39.85;;;;;;;30.45;80.85;97615.38;4943033;28;20061;-68
2022/08/08 00:23:56;;;;;;;73.93;40.50;;;;;;;30.45;80.92;97618.16;4948739;28;20126;-67
2022/08/08 00:26:51;;;;;;;69.57;40.47;;;;;;;30.43;81.29;97617.72;4960229;28;20447;-68
2022/08/08 00:29:50;;;;;;;73.18;42.30;;;;;;;30.38;81.37;97623.56;4946298;28;20470;-68
2022/08/08 00:32:56;;;;;;;70.68;41.60;;;;;;;30.41;81.54;97634.69;4954254;28;20067;-68
2022/08/08 00:36:14;;;;;;;72.18;41.80;;;;;;;30.45;80.87;97629.22;4976811;28;20050;-68
2022/08/08 00:39:13;;;;;;;79.03;42.72;;;;;;;30.37;81.73;97633.06;4982674;28;20046;-68
2022/08/08 00:42:46;;;;;;;78.95;43.30;;;;;;;30.35;81.82;97635.41;4983332;28;20070;-68
2022/08/08 00:45:59;;;;;;;76.60;43.03;;;;;;;30.36;81.94;97642.53;4966297;28;20120;-68
2022/08/08 00:49:34;;;;;;;78.18;43.42;;;;;;;30.33;82.12;97643.28;4966585;28;20410;-67
2022/08/08 00:52:36;;;;;;;79.10;43.80;;;;;;;30.26;81.81;97641.94;4981500;28;20051;-68
2022/08/08 00:55:46;;;;;;;75.05;43.20;;;;;;;30.35;81.35;97640.94;4956859;28;20457;-67
2022/08/08 00:58:59;;;;;;;76.80;43.40;;;;;;;30.04;82.58;97640.81;4962387;28;20054;-69
2022/08/08 01:02:12;;;;;;;73.20;40.80;;;;;;;29.99;82.51;97641.09;4959400;28;20077;-68
2022/08/08 01:05:52;;;;;;;76.80;43.15;;;;;;;30.16;82.42;97633.50;4974705;28;20057;-68
2022/08/08 01:09:28;;;;;;;71.53;41.80;;;;;;;30.11;82.43;97639.31;4962661;28;20039;-68
2022/08/08 01:12:38;;;;;;;64.47;38.55;;;;;;;30.30;81.49;97643.97;4977708;28;20101;-68
2022/08/08 01:15:45;;;;;;;61.67;37.60;;;;;;;30.45;80.99;97648.59;4974505;28;20146;-68
2022/08/08 01:18:53;;;;;;;65.28;37.95;;;;;;;30.42;81.26;97646.56;4965721;28;20105;-68
2022/08/08 01:21:55;;;;;;;64.03;36.30;;;;;;;30.66;80.06;97652.88;4965323;28;20148;-68
2022/08/08 01:25:24;;;;;;;59.63;34.75;;;;;;;30.69;79.72;97649.34;4982757;28;20161;-68
2022/08/08 01:28:43;;;;;;;56.38;35.72;;;;;;;30.53;80.38;97653.06;4949470;28;20059;-68
2022/08/08 01:31:46;;;;;;;53.38;32.83;;;;;;;30.46;80.95;97664.06;4937274;29;20047;-68
2022/08/08 01:35:12;;;;;;;49.40;31.42;;;;;;;30.51;80.47;97666.47;4943279;29;20071;-67
2022/08/08 01:38:25;;;;;;;51.10;32.20;;;;;;;30.61;79.94;97659.50;4942850;29;20055;-68
2022/08/08 01:41:12;;;;;;;50.13;31.05;;;;;;;30.64;80.50;97664.31;4943026;29;20062;-67
2022/08/08 01:44:11;;;;;;;46.63;30.17;;;;;;;30.20;80.88;97668.34;4941871;28;20044;-68
2022/08/08 01:46:52;;;;;;;46.30;29.80;;;;;;;30.68;79.96;97667.13;4942572;28;20057;-68
2022/08/08 01:50:31;;;;;;;43.53;29.83;;;;;;;30.82;78.91;97668.16;4942559;29;20348;-67
2022/08/08 01:53:30;;;;;;;47.20;28.60;;;;;;;30.78;79.17;97672.84;4936944;29;20111;-68
2022/08/08 01:57:07;;;;;;;40.50;27.17;;;;;;;30.99;78.50;97672.38;4925652;29;20055;-68
2022/08/08 01:59:59;;;;;;;48.42;28.60;;;;;;;31.19;77.48;97666.69;4942716;28;20621;-67
2022/08/08 02:03:30;;;;;;;42.88;26.45;;;;;;;31.23;77.52;97664.75;4934437;28;20150;-68
2022/08/08 02:07:07;;;;;;;42.83;28.23;;;;;;;31.10;77.46;97669.72;4916698;29;20043;-68
2022/08/08 02:10:10;;;;;;;37.10;26.55;;;;;;;31.16;77.77;97672.97;4945241;29;20043;-68
2022/08/08 02:13:10;;;;;;;40.25;27.33;;;;;;;31.20;77.32;97671.03;4944732;29;20159;-67
2022/08/08 02:16:45;;;;;;;37.53;26.05;;;;;;;31.45;77.21;97687.97;4928985;29;20040;-68
2022/08/08 02:19:51;;;;;;;40.25;26.30;;;;;;;31.33;76.55;97683.47;4910382;29;20058;-68
2022/08/08 02:23:22;;;;;;;39.72;26.23;;;;;;;31.79;75.54;97679.69;4916071;29;20158;-68
2022/08/08 02:26:20;;;;;;;34.13;24.27;;;;;;;32.09;74.58;97690.72;4946002;29;20054;-68
2022/08/08 02:29:19;;;;;;;34.65;24.25;;;;;;;32.08;73.94;97683.56;4958642;28;20050;-68
2022/08/08 02:32:39;;;;;;;33.53;24.27;;;;;;;32.10;73.46;97684.00;4950420;28;20046;-68
2022/08/08 02:35:43;;;;;;;34.72;24.60;;;;;;;32.98;71.81;97678.72;4969814;28;20362;-68
2022/08/08 02:39:23;;;;;;;28.17;20.70;;;;;;;33.02;69.48;97689.81;4967170;28;20469;-68
2022/08/08 02:42:43;;;;;;;28.15;21.33;;;;;;;33.24;69.91;97680.44;4984199;28;20058;-68
2022/08/08 02:46:14;;;;;;;28.27;20.55;;;;;;;33.56;68.59;97685.34;4963759;28;20469;-68
2022/08/08 02:49:11;;;;;;;32.45;21.38;;;;;;;32.94;69.87;97684.25;4984660;28;20042;-68
2022/08/08 02:52:53;;;;;;;30.88;22.55;;;;;;;33.21;68.15;97681.25;4982708;28;20133;-68
2022/08/08 02:56:02;;;;;;;27.30;19.45;;;;;;;32.77;70.71;97685.72;4986013;28;20046;-68
2022/08/08 02:59:42;;;;;;;24.38;19.15;;;;;;;33.96;67.03;97677.91;4983912;28;20042;-68
2022/08/08 03:02:57;;;;;;;23.13;18.08;;;;;;;33.69;66.88;97675.47;4951704;28;20057;-68
2022/08/08 03:06:22;;;;;;;24.15;18.42;;;;;;;33.55;67.91;97678.19;4967796;28;20426;-68
2022/08/08 03:09:52;;;;;;;23.73;18.38;;;;;;;33.62;67.80;97678.19;4968047;28;20047;-68
2022/08/08 03:13:04;;;;;;;25.55;18.15;;;;;;;33.78;68.30;97677.88;4968976;28;20113;-69
2022/08/08 03:16:43;;;;;;;24.23;18.38;;;;;;;33.39;68.77;97670.19;4954446;28;20125;-68
2022/08/08 03:20:12;;;;;;;26.23;17.75;;;;;;;33.84;66.21;97665.19;4947410;28;20141;-68
2022/08/08 03:23:01;;;;;;;24.67;17.77;;;;;;;33.89;65.81;97675.13;4967732;28;20046;-68
2022/08/08 03:25:57;;;;;;;22.33;16.75;;;;;;;34.22;65.92;97670.41;4967836;28;22361;-67
2022/08/08 03:29:05;;;;;;;23.27;16.88;;;;;;;33.82;65.49;97675.91;4968609;28;20050;-68
2022/08/08 03:35:13;;;;;;;23.52;16.45;;;;;;;34.06;63.33;97668.78;4926216;29;20290;-67
2022/08/08 03:38:02;;;;;;;21.85;16.13;;;;;;;33.62;64.82;97667.06;4951383;28;20118;-68
2022/08/08 03:41:04;;;;;;;21.15;15.30;;;;;;;34.37;63.38;97671.19;4947578;29;20067;-68
2022/08/08 03:44:20;;;;;;;20.08;15.02;;;;;;;34.48;62.43;97670.00;4933763;29;20137;-68
2022/08/08 03:47:20;;;;;;;20.52;14.82;;;;;;;33.98;63.71;97675.53;4947730;29;20074;-68
2022/08/08 03:50:26;;;;;;;21.33;15.10;;;;;;;34.06;62.65;97679.91;4947719;29;20075;-68
2022/08/08 03:53:10;;;;;;;23.25;15.60;;;;;;;33.50;63.57;97679.38;4931558;29;20471;-67
2022/08/08 03:56:21;;;;;;;17.60;14.65;;;;;;;34.57;62.38;97679.94;4931397;29;20130;-68
2022/08/08 03:59:06;;;;;;;19.45;15.32;;;;;;;34.19;63.24;97676.78;4965033;28;20634;-68
2022/08/08 04:02:23;;;;;;;19.90;14.32;;;;;;;34.63;60.94;97670.78;4951293;28;20109;-68
2022/08/08 04:05:10;;;;;;;17.40;14.30;;;;;;;35.25;59.91;97665.91;4966677;28;20050;-68
2022/08/08 04:08:23;;;;;;;14.82;12.70;;;;;;;35.60;60.60;97664.13;4950597;28;20058;-68
2022/08/08 04:11:20;;;;;;;18.45;14.82;;;;;;;35.34;61.13;97657.09;4970852;28;20129;-68
2022/08/08 04:14:19;;;;;;;15.02;12.95;;;;;;;35.74;58.87;97663.31;4946882;28;20143;-68
2022/08/08 04:17:09;;;;;;;18.50;13.35;;;;;;;35.71;58.94;97658.53;4956362;28;20086;-68
2022/08/08 04:20:18;;;;;;;14.45;12.35;;;;;;;35.44;57.98;97650.66;4960709;28;20055;-68
2022/08/08 04:23:09;;;;;;;12.63;11.27;;;;;;;35.33;58.54;97655.50;4950066;28;20042;-68
2022/08/08 04:25:56;;;;;;;16.25;12.98;;;;;;;34.49;61.20;97656.84;4950550;28;20765;-68
2022/08/08 04:28:49;;;;;;;16.83;12.45;;;;;;;35.83;59.86;97655.28;4967005;28;20513;-68
2022/08/08 04:31:44;;;;;;;16.45;11.85;;;;;;;35.73;58.30;97650.53;4951768;28;20090;-68
2022/08/08 04:34:41;;;;;;;15.20;11.40;;;;;;;35.92;57.21;97655.59;4965311;28;20042;-68
2022/08/08 04:37:43;;;;;;;14.27;12.10;;;;;;;36.27;55.46;97656.56;4949791;28;20343;-68
2022/08/08 04:40:39;;;;;;;14.48;11.15;;;;;;;36.81;56.67;97659.66;4964847;28;20070;-68
2022/08/08 04:43:34;;;;;;;11.75;10.38;;;;;;;35.97;54.40;97652.38;4946465;29;20069;-68
2022/08/08 04:46:27;;;;;;;11.98;9.75;;;;;;;36.53;54.94;97659.94;4945773;29;20757;-69
2022/08/08 04:49:11;;;;;;;13.27;11.27;;;;;;;36.16;56.04;97655.84;4953763;28;20415;-66
2022/08/08 04:52:08;;;;;;;12.50;10.50;;;;;;;37.15;55.04;97658.94;4945813;28;20039;-68
2022/08/08 04:54:52;;;;;;;13.82;10.98;;;;;;;36.89;53.67;97665.97;4979276;28;20055;-69
2022/08/08 04:57:41;;;;;;;15.63;11.05;;;;;;;36.20;55.50;97663.00;4963533;28;20474;-69
2022/08/08 05:00:24;;;;;;;14.95;10.63;;;;;;;36.91;56.29;97666.34;4964806;28;20046;-68
2022/08/08 05:03:14;;;;;;;13.15;10.48;;;;;;;37.35;52.64;97666.69;4984360;28;20086;-70
2022/08/08 05:06:17;;;;;;;13.50;10.23;;;;;;;37.23;52.51;97665.22;4978628;28;20054;-70
2022/08/08 05:09:10;;;;;;;12.32;10.38;;;;;;;37.43;51.82;97662.56;4984707;28;20054;-66
2022/08/08 05:11:57;;;;;;;15.50;10.57;;;;;;;36.99;52.67;97664.28;4968381;28;20066;-66
2022/08/08 05:14:50;;;;;;;13.45;10.88;;;;;;;37.36;50.65;97659.88;4986067;28;20054;-66
2022/08/08 05:17:34;;;;;;;12.50;10.80;;;;;;;37.01;53.86;97667.44;4994346;28;20058;-65
2022/08/08 05:20:34;;;;;;;14.38;11.27;;;;;;;36.13;56.37;97653.84;4979279;28;20755;-65
2022/08/08 05:23:29;;;;;;;13.00;10.40;;;;;;;36.36;57.81;97656.09;4961918;28;20050;-66
2022/08/08 05:26:27;;;;;;;13.23;10.90;;;;;;;36.07;54.70;97650.69;4968306;28;20047;-67
2022/08/08 05:29:16;;;;;;;12.88;11.10;;;;;;;36.06;54.62;97647.13;4968158;28;20054;-67
2022/08/08 05:32:17;;;;;;;17.85;13.02;;;;;;;36.48;54.85;97633.25;4952070;28;20055;-66
2022/08/08 05:35:08;;;;;;;15.55;11.55;;;;;;;35.98;55.27;97634.44;4926947;28;20131;-65
2022/08/08 05:38:05;;;;;;;14.98;11.80;;;;;;;36.48;54.67;97630.44;4964898;28;20069;-64
2022/08/08 05:41:24;;;;;;;14.60;12.07;;;;;;;37.07;52.30;97635.03;4941675;29;20217;-66
2022/08/08 05:44:12;;;;;;;20.60;12.02;;;;;;;36.54;55.31;97633.59;4929025;29;20125;-68
2022/08/08 05:47:12;;;;;;;13.85;11.45;;;;;;;37.28;54.03;97620.00;4950783;28;20042;-66
2022/08/08 05:50:05;;;;;;;159.68;22.67;;;;;;;36.97;54.85;97630.34;4965712;28;20078;-67
2022/08/08 05:52:48;;;;;;;14.43;12.27;;;;;;;37.01;57.75;97625.50;4983908;28;20085;-67
2022/08/08 05:55:59;;;;;;;16.25;11.55;;;;;;;36.68;54.84;97619.47;4983947;28;20052;-66
2022/08/08 05:59:03;;;;;;;14.68;12.13;;;;;;;37.35;55.80;97614.31;4953169;28;20133;-68
2022/08/08 06:02:01;;;;;;;15.40;11.15;;;;;;;37.15;53.05;97610.59;4965235;28;20058;-65
2022/08/08 06:04:43;;;;;;;14.00;11.55;;;;;;;37.08;51.75;97619.03;4965489;28;20506;-66
2022/08/08 06:07:36;;;;;;;14.43;12.25;;;;;;;37.02;54.50;97613.09;4948036;28;20142;-67
2022/08/08 06:10:29;;;;;;;18.13;11.68;;;;;;;36.92;54.65;97600.03;4947968;28;20038;-68
2022/08/08 06:13:20;;;;;;;13.13;11.02;;;;;;;37.07;52.07;97593.06;4962591;28;20059;-68
2022/08/08 06:16:16;;;;;;;16.55;11.63;;;;;;;37.47;51.75;97590.53;4944297;28;20061;-67
2022/08/08 06:19:25;;;;;;;14.50;11.65;;;;;;;37.03;51.71;97603.50;4964740;28;20054;-68
2022/08/08 06:22:16;;;;;;;16.33;11.15;;;;;;;36.52;52.85;97596.88;4947446;28;20058;-67
2022/08/08 06:25:22;;;;;;;15.27;10.73;;;;;;;37.13;52.10;97591.44;4957640;28;20043;-67
2022/08/08 06:28:31;;;;;;;12.65;11.35;;;;;;;37.16;55.32;97584.19;4966502;28;20058;-68
2022/08/08 06:31:28;;;;;;;13.02;10.85;;;;;;;37.10;53.04;97586.63;4968537;28;20051;-70
2022/08/08 06:34:45;;;;;;;14.00;11.60;;;;;;;36.78;53.47;97589.81;4933360;29;20065;-68
2022/08/08 06:38:05;;;;;;;14.45;11.07;;;;;;;37.16;55.88;97584.19;4929871;28;20667;-68
2022/08/08 06:41:01;;;;;;;12.05;10.60;;;;;;;37.17;54.73;97580.97;4949988;28;20146;-68
2022/08/08 06:43:59;;;;;;;13.82;11.20;;;;;;;37.39;54.07;97577.88;4944240;28;20123;-68
2022/08/08 06:46:44;;;;;;;13.48;11.48;;;;;;;37.22;52.93;97585.28;4950244;28;20527;-67
2022/08/08 06:49:36;;;;;;;16.65;11.82;;;;;;;37.27;52.29;97578.47;4945431;28;20067;-67
2022/08/08 06:52:37;;;;;;;16.17;12.35;;;;;;;37.55;50.12;97580.06;4950414;28;20162;-68
2022/08/08 06:55:30;;;;;;;12.00;10.65;;;;;;;37.23;50.71;97567.31;4958197;28;20047;-68
2022/08/08 06:58:21;;;;;;;12.27;11.07;;;;;;;37.00;52.39;97562.41;4941579;29;20048;-69
2022/08/08 07:01:16;;;;;;;13.70;10.93;;;;;;;36.71;54.38;97565.53;4964481;28;20117;-69
2022/08/08 07:05:09;;;;;;;19.13;11.85;;;;;;;36.56;50.80;97567.66;4971913;28;20046;-68
2022/08/08 07:08:07;;;;;;;15.20;11.75;;;;;;;36.95;53.94;97551.66;4985701;28;20054;-69
2022/08/08 07:10:56;;;;;;;13.65;11.48;;;;;;;37.13;53.44;97549.47;4970750;28;20038;-72
2022/08/08 07:13:53;;;;;;;17.20;11.82;;;;;;;37.17;52.67;97547.41;4970555;28;20050;-72
2022/08/08 07:16:54;;;;;;;12.60;11.30;;;;;;;37.26;51.40;97538.47;4954942;28;20113;-71
2022/08/08 07:20:07;;;;;;;15.85;11.38;;;;;;;37.87;51.93;97534.75;4950801;28;20449;-68
2022/08/08 07:23:07;;;;;;;15.52;11.48;;;;;;;37.44;53.49;97540.25;4952824;28;20051;-68
2022/08/08 07:26:04;;;;;;;15.65;11.13;;;;;;;37.03;52.11;97534.38;4986393;28;20478;-68
2022/08/08 07:28:59;;;;;;;14.45;11.52;;;;;;;37.43;51.21;97533.84;4955922;28;20082;-68
2022/08/08 07:32:17;;;;;;;14.15;11.57;;;;;;;37.19;53.59;97531.00;4962563;28;20172;-67
2022/08/08 07:35:08;;;;;;;13.93;12.43;;;;;;;37.02;54.27;97518.03;4959429;28;20082;-69
2022/08/08 07:37:59;;;;;;;13.35;11.95;;;;;;;36.80;53.51;97518.31;4968019;28;20125;-67
2022/08/08 07:41:00;;;;;;;14.13;12.40;;;;;;;37.52;52.70;97510.94;4950557;28;20051;-68
2022/08/08 07:44:05;;;;;;;14.68;11.38;;;;;;;37.43;52.67;97505.84;4984132;28;20065;-68
2022/08/08 07:47:16;;;;;;;15.35;12.80;;;;;;;37.35;53.73;97498.78;4939890;28;20084;-67
2022/08/08 07:50:19;;;;;;;16.27;13.20;;;;;;;37.09;53.40;97506.75;4949375;28;20596;-68
2022/08/08 07:53:33;;;;;;;14.45;11.77;;;;;;;37.35;50.82;97501.59;4946927;28;20050;-67
2022/08/08 07:56:38;;;;;;;13.82;11.43;;;;;;;36.52;52.11;97510.25;4951784;28;20061;-69
2022/08/08 07:59:43;;;;;;;12.50;10.97;;;;;;;37.07;52.30;97502.75;4960695;28;20118;-68
2022/08/08 08:02:32;;;;;;;14.15;12.07;;;;;;;37.03;51.02;97497.22;4962026;28;20054;-70
2022/08/08 08:05:27;;;;;;;14.07;12.52;;;;;;;36.81;54.37;97485.53;4963290;28;20043;-69
2022/08/08 08:08:26;;;;;;;15.25;13.27;;;;;;;37.40;51.28;97481.53;4957962;28;20050;-69
2022/08/08 08:11:13;;;;;;;14.90;12.45;;;;;;;37.08;52.64;97479.97;4947604;28;20055;-68
2022/08/08 08:14:08;;;;;;;16.40;12.70;;;;;;;37.48;50.72;97471.00;4945883;28;20055;-68
2022/08/08 08:17:06;;;;;;;13.82;12.40;;;;;;;37.76;51.89;97473.34;4961064;28;20081;-68
2022/08/08 08:19:47;;;;;;;14.80;11.82;;;;;;;37.16;52.21;97467.47;4957683;28;20065;-69
2022/08/08 08:22:45;;;;;;;16.33;12.30;;;;;;;37.26;51.36;97460.13;4941032;28;20062;-69
2022/08/08 08:25:21;;;;;;;13.75;12.07;;;;;;;37.76;53.95;97466.97;4981941;28;20065;-69
2022/08/08 08:28:33;;;;;;;14.05;12.45;;;;;;;37.36;49.89;97461.22;4965523;28;20102;-71
2022/08/08 08:31:10;;;;;;;13.90;12.35;;;;;;;36.72;52.32;97452.50;4960372;28;20065;-71
2022/08/08 08:34:06;;;;;;;15.25;12.40;;;;;;;36.87;51.06;97452.31;4964033;28;20038;-72
2022/08/08 08:36:56;;;;;;;17.90;12.40;;;;;;;37.27;52.08;97447.75;4948080;28;20046;-69
2022/08/08 08:39:49;;;;;;;14.05;12.55;;;;;;;36.82;52.45;97454.38;4965441;28;20046;-69
2022/08/08 08:42:52;;;;;;;14.77;12.13;;;;;;;37.13;53.67;97445.97;4965048;28;20051;-69
2022/08/08 08:45:30;;;;;;;12.77;11.48;;;;;;;37.38;52.69;97445.56;4951512;28;20450;-69
2022/08/08 08:48:29;;;;;;;13.40;12.00;;;;;;;37.11;51.40;97442.78;4969311;28;20214;-67
2022/08/08 08:51:11;;;;;;;15.75;12.10;;;;;;;37.25;51.88;97429.81;4972448;28;20051;-69
2022/08/08 08:54:13;;;;;;;16.02;13.90;;;;;;;37.41;53.17;97429.94;4946671;28;20043;-69
2022/08/08 08:56:49;;;;;;;14.40;12.88;;;;;;;37.39;52.61;97429.56;4931274;28;20047;-70
2022/08/08 08:59:43;;;;;;;14.75;13.10;;;;;;;37.45;50.62;97425.06;4901304;28;20438;-69
2022/08/08 09:02:47;;;;;;;15.77;13.18;;;;;;;36.23;53.70;97419.16;4964508;28;20062;-69
2022/08/08 09:05:34;;;;;;;16.05;13.23;;;;;;;36.95;54.40;97418.22;4946726;28;20046;-68
2022/08/08 09:08:34;;;;;;;;;;;;;;;37.66;52.92;97403.53;4968444;28;20070;-70
2022/08/08 09:11:18;;;;;;;15.52;13.55;;;;;;;37.70;53.39;97401.47;4975147;28;19929;-70
2022/08/08 09:14:14;;;;;;;19.77;14.00;;;;;;;37.48;52.22;97393.44;4986246;28;20082;-71
2022/08/08 09:16:57;;;;;;;17.27;13.68;;;;;;;37.51;53.15;97395.38;4985510;28;20046;-69
2022/08/08 09:20:01;;;;;;;16.83;14.23;;;;;;;37.11;54.10;97386.84;4952789;28;20055;-67
2022/08/08 09:23:04;;;;;;;17.83;14.45;;;;;;;36.61;51.81;97381.94;4972132;28;20046;-70
2022/08/08 09:26:13;;;;;;;17.63;14.18;;;;;;;36.72;53.13;97377.03;4629249;28;10000329;-70
2022/08/08 09:28:59;;;;;;;18.40;14.48;;;;;;;36.28;54.38;97376.00;4967374;28;20074;-72
2022/08/08 09:31:52;;;;;;;19.83;15.80;;;;;;;36.66;53.45;97373.13;4980012;28;20545;-74
2022/08/08 09:34:53;;;;;;;18.65;15.05;;;;;;;36.86;54.38;97366.84;4943807;28;20035;-69
2022/08/08 09:37:57;;;;;;;19.13;15.45;;;;;;;36.90;54.26;97360.00;4947141;28;20054;-73
2022/08/08 09:40:47;;;;;;;18.23;14.73;;;;;;;36.86;55.41;97364.03;4959582;28;20053;-69
2022/08/08 09:43:54;;;;;;;19.35;13.95;;;;;;;36.86;52.76;97358.44;4944729;29;20114;-68
2022/08/08 09:46:48;;;;;;;17.65;14.73;;;;;;;36.57;54.60;97347.66;4945982;28;20039;-69
2022/08/08 09:49:58;;;;;;;18.50;14.90;;;;;;;36.94;53.57;97341.16;4949011;28;20670;-73
2022/08/08 09:52:50;;;;;;;17.48;15.57;;;;;;;36.79;54.83;97350.97;4963019;28;20059;-68
2022/08/08 09:55:51;;;;;;;22.25;15.07;;;;;;;35.93;54.65;97338.91;4964048;28;20051;-70
2022/08/08 09:59:03;;;;;;;20.05;15.85;;;;;;;35.98;54.33;97335.66;4928392;28;20142;-72
2022/08/08 10:02:19;;;;;;;17.58;15.43;;;;;;;36.31;54.11;97335.28;4965018;28;20461;-69
2022/08/08 10:05:12;;;;;;;17.73;15.88;;;;;;;36.26;56.05;97325.34;4963176;28;20422;-70
2022/08/08 10:08:05;;;;;;;17.92;14.73;;;;;;;36.22;55.73;97322.59;4970271;28;20039;-72
2022/08/08 10:10:58;;;;;;;18.02;15.18;;;;;;;36.48;55.74;97322.25;4960829;28;20051;-73
2022/08/08 10:14:10;;;;;;;17.77;15.52;;;;;;;36.43;54.69;97310.34;4967809;28;20055;-70
2022/08/08 10:17:18;;;;;;;16.83;14.95;;;;;;;36.52;53.66;97309.03;4968535;28;20074;-73
2022/08/08 10:20:56;;;;;;;17.63;15.48;;;;;;;36.75;54.57;97297.13;4970436;28;20049;-73
2022/08/08 10:24:08;;;;;;;17.52;15.68;;;;;;;36.47;54.26;97309.50;4965194;28;20057;-69
2022/08/08 10:27:12;;;;;;;17.30;15.38;;;;;;;36.51;54.28;97293.47;4966215;28;20051;-70
2022/08/08 10:30:05;;;;;;;23.20;15.73;;;;;;;36.79;53.95;97283.88;4968363;28;20135;-71
2022/08/08 10:32:59;;;;;;;22.77;16.30;;;;;;;36.84;55.83;97288.97;4964346;28;20050;-72
2022/08/08 10:36:02;;;;;;;21.20;15.68;;;;;;;36.59;54.83;97278.97;4959275;28;20070;-71
2022/08/08 10:39:03;;;;;;;17.80;15.90;;;;;;;36.63;53.88;97276.91;4943307;28;20050;-68
2022/08/08 10:42:23;;;;;;;20.30;16.15;;;;;;;36.55;54.61;97278.22;4929143;28;20207;-72
2022/08/08 10:45:09;;;;;;;19.85;15.88;;;;;;;36.77;54.07;97284.31;4957932;28;20072;-72
2022/08/08 10:48:06;;;;;;;18.00;15.90;;;;;;;36.76;52.64;97274.31;4950433;28;20797;-70
2022/08/08 10:50:49;;;;;;;19.00;14.93;;;;;;;36.98;53.54;97271.97;4612786;28;10000507;-71
2022/08/08 10:53:43;;;;;;;19.45;15.90;;;;;;;36.79;53.41;97267.91;4962412;28;20454;-73
2022/08/08 10:56:38;;;;;;;16.88;14.68;;;;;;;36.55;53.55;97269.06;4960165;28;20057;-72
2022/08/08 10:59:28;;;;;;;17.40;15.50;;;;;;;36.69;54.83;97262.47;4962711;28;20047;-72
2022/08/08 11:02:35;;;;;;;20.52;16.98;;;;;;;36.54;54.45;97259.09;4961201;28;20162;-73
2022/08/08 11:05:15;;;;;;;19.13;16.17;;;;;;;36.62;53.61;97257.78;4966616;28;20151;-73
2022/08/08 11:08:04;;;;;;;18.73;15.40;;;;;;;36.80;54.26;97258.31;4966049;28;20680;-71
2022/08/08 11:11:16;;;;;;;17.95;16.08;;;;;;;36.74;56.27;97257.19;4961844;28;20058;-69
2022/08/08 11:14:18;;;;;;;24.85;16.30;;;;;;;36.15;54.99;97258.41;4964238;28;20047;-68
2022/08/08 11:17:09;;;;;;;21.45;16.20;;;;;;;36.36;54.82;97254.56;4948508;28;20502;-70
2022/08/08 11:19:55;;;;;;;18.25;16.35;;;;;;;36.73;52.27;97252.81;4966455;28;20058;-71
2022/08/08 11:22:57;;;;;;;17.58;15.65;;;;;;;36.65;52.36;97248.56;4967389;28;20903;-70
2022/08/08 11:25:41;;;;;;;20.58;16.02;;;;;;;36.74;54.31;97253.59;4963046;28;20055;-70
2022/08/08 11:28:41;;;;;;;20.75;16.50;;;;;;;36.65;55.42;97237.41;4964323;28;20525;-70
2022/08/08 11:31:26;;;;;;;17.27;15.45;;;;;;;36.73;53.70;97244.44;4960984;28;20061;-70
2022/08/08 11:34:31;;;;;;;23.48;17.13;;;;;;;36.50;53.40;97241.59;4955567;28;20490;-69
2022/08/08 11:37:41;;;;;;;23.48;15.82;;;;;;;36.37;55.32;97242.19;4951046;28;20050;-70
2022/08/08 11:40:58;;;;;;;20.40;16.17;;;;;;;36.44;55.00;97233.69;4949943;28;20051;-70
2022/08/08 11:43:36;;;;;;;18.50;16.55;;;;;;;36.30;55.92;97230.31;4965426;28;20047;-69
2022/08/08 11:46:37;;;;;;;20.67;16.58;;;;;;;36.24;54.28;97230.78;4963238;28;20082;-69
2022/08/08 11:49:13;;;;;;;18.60;16.10;;;;;;;36.60;54.16;97226.66;4965536;28;20046;-70
2022/08/08 11:52:10;;;;;;;20.45;17.05;;;;;;;36.25;55.27;97226.03;4964207;28;20054;-69
2022/08/08 11:55:28;;;;;;;19.13;17.02;;;;;;;36.41;55.86;97223.34;4616615;28;10000940;-67
2022/08/08 11:58:08;;;;;;;24.40;16.48;;;;;;;36.40;53.61;97227.38;4979637;28;20042;-67
2022/08/08 12:01:11;;;;;;;20.08;16.33;;;;;;;36.37;54.68;97217.03;4976064;28;20061;-67
2022/08/08 12:03:51;;;;;;;17.60;15.77;;;;;;;35.96;55.12;97209.66;4966857;28;20085;-69
2022/08/08 12:06:46;;;;;;;18.70;16.70;;;;;;;36.04;55.53;97204.75;4974737;28;21369;-67
2022/08/08 12:09:28;;;;;;;20.50;16.02;;;;;;;36.03;55.22;97209.53;4976590;28;20074;-69
2022/08/08 12:12:47;;;;;;;18.35;16.27;;;;;;;36.12;55.26;97203.44;4945615;29;20095;-71
2022/08/08 12:15:34;;;;;;;18.25;16.35;;;;;;;35.57;56.29;97215.72;4971859;28;20550;-68
2022/08/08 12:18:33;;;;;;;18.55;16.60;;;;;;;35.90;55.55;97208.50;4964831;28;20792;-66
2022/08/08 12:21:29;;;;;;;19.98;16.42;;;;;;;36.03;55.29;97195.56;4966370;28;20046;-70
2022/08/08 12:24:52;;;;;;;20.38;17.95;;;;;;;36.02;54.67;97201.56;4961529;28;20055;-68
2022/08/08 12:27:37;;;;;;;21.67;16.83;;;;;;;35.68;55.22;97200.44;4968578;28;20039;-69
2022/08/08 12:30:37;;;;;;;18.63;16.65;;;;;;;36.05;54.62;97195.16;4961683;28;20053;-69
2022/08/08 12:33:18;;;;;;;21.52;16.42;;;;;;;36.07;54.62;97199.09;4959351;28;20081;-69
2022/08/08 12:36:24;;;;;;;21.52;16.65;;;;;;;36.10;55.01;97191.09;4975885;28;20141;-71
2022/08/08 12:39:32;;;;;;;18.48;16.38;;;;;;;35.88;55.29;97191.41;4980758;28;20051;-68
2022/08/08 12:42:29;;;;;;;19.48;17.42;;;;;;;36.00;56.08;97190.84;4952603;28;20872;-67
2022/08/08 12:45:42;;;;;;;21.08;16.23;;;;;;;35.60;57.01;97198.13;4967953;28;20142;-71
2022/08/08 12:48:36;;;;;;;25.63;17.70;;;;;;;35.68;57.28;97199.66;4960649;28;20046;-74
2022/08/08 12:51:52;;;;;;;19.75;17.85;;;;;;;35.73;57.84;97201.97;4968236;28;20137;-73
2022/08/08 12:54:38;;;;;;;19.70;17.60;;;;;;;35.44;58.09;97196.72;4960192;28;20067;-73
2022/08/08 12:57:38;;;;;;;20.77;18.27;;;;;;;35.47;57.99;97201.47;4964203;28;20046;-71
2022/08/08 13:00:29;;;;;;;20.40;17.65;;;;;;;35.56;60.52;97205.75;4965511;28;20494;-71
2022/08/08 13:03:24;;;;;;;22.52;18.63;;;;;;;35.42;59.91;97204.72;4967939;28;20038;-72
2022/08/08 13:06:21;;;;;;;22.50;18.30;;;;;;;35.28;61.95;97211.25;4963943;28;20061;-70
2022/08/08 13:09:09;;;;;;;22.48;17.50;;;;;;;35.26;60.05;97208.09;4971843;28;20064;-73
2022/08/08 13:12:00;;;;;;;21.27;18.13;;;;;;;35.11;59.31;97212.22;4977671;28;20058;-71
2022/08/08 13:15:14;;;;;;;23.98;19.20;;;;;;;35.02;59.87;97214.69;4987054;28;20042;-72
2022/08/08 13:18:29;;;;;;;19.73;17.27;;;;;;;34.69;59.98;97215.00;4620914;28;10000354;-71
2022/08/08 13:21:49;;;;;;;24.95;20.73;;;;;;;35.17;58.78;97216.16;4969950;28;20242;-71
2022/08/08 13:24:39;;;;;;;23.73;19.45;;;;;;;34.76;59.54;97216.94;4965059;28;20407;-72
2022/08/08 13:27:30;;;;;;;23.10;19.20;;;;;;;34.92;59.78;97212.81;4939027;29;20051;-72
2022/08/08 13:30:16;;;;;;;41.47;31.90;;;;;;;35.24;59.61;97218.09;4965255;28;20082;-70
2022/08/08 13:33:12;;;;;;;29.80;25.45;;;;;;;35.14;59.74;97213.38;4966231;28;20117;-73
2022/08/08 13:35:54;;;;;;;42.88;32.33;;;;;;;35.16;59.95;97222.91;4970711;28;20043;-73
2022/08/08 13:38:50;;;;;;;26.92;23.98;;;;;;;34.97;59.71;97217.91;4946845;28;20035;-72
2022/08/08 13:41:47;;;;;;;61.72;46.28;;;;;;;35.07;61.22;97219.81;4958842;28;20058;-71
2022/08/08 13:44:29;;;;;;;49.13;37.75;;;;;;;35.04;61.08;97224.22;4947406;28;20697;-73
2022/08/08 13:47:32;;;;;;;38.33;31.52;;;;;;;34.86;60.11;97220.81;4937515;28;20047;-73
2022/08/08 13:50:09;;;;;;;35.35;24.60;;;;;;;34.93;59.96;97222.75;4942755;28;20047;-73
2022/08/08 13:53:39;;;;;;;71.30;53.40;;;;;;;34.79;60.89;97223.66;4935770;28;20194;-72
2022/08/08 13:56:37;;;;;;;39.63;29.70;;;;;;;34.92;61.40;97232.31;4942568;28;20066;-72